sensor_id;sensor_type;location;lat;lon;timestamp;temperature;humidity
10437;DHT22;5265;50.006;9.202;2023-04-25T06:00:54;7.30;99.90
10437;DHT22;5265;50.006;9.202;2023-04-25T06:03:22;6.70;99.90
10437;DHT22;5265;50.006;9.202;2023-04-25T06:05:50;7.40;99.90
10437;DHT22;5265;50.006;9.202;2023-04-25T06:08:18;7.40;99.90
10437;DHT22;5265;50.006;9.202;2023-04-25T06:10:46;7.20;99.90
10437;DHT22;5265;50.006;9.202;2023-04-25T06:13:13;7.20;99.90
10437;DHT22;5265;50.006;9.202;2023-04-25T06:15:41;7.20;99.90
10437;DHT22;5265;50.006;9.202;2023-04-25T06:18:10;6.90;99.90
10437;DHT22;5265;50.006;9.202;2023-04-25T06:20:37;7.10;99.90
10437;DHT22;5265;50.006;9.202;2023-04-25T06:23:04;7.20;99.90
10437;DHT22;5265;50.006;9.202;2023-04-25T06:25:42;7.10;99.90
10437;DHT22;5265;50.006;9.202;2023-04-25T06:28:09;7.20;99.90
10437;DHT22;5265;50.006;9.202;2023-04-25T06:30:37;7.20;99.90
10437;DHT22;5265;50.006;9.202;2023-04-25T06:33:09;7.30;99.90
10437;DHT22;5265;50.006;9.202;2023-04-25T06:35:38;7.30;99.90
10437;DHT22;5265;50.006;9.202;2023-04-25T06:38:07;7.40;99.90
10437;DHT22;5265;50.006;9.202;2023-04-25T06:40:37;7.20;99.90
10437;DHT22;5265;50.006;9.202;2023-04-25T06:43:05;7.40;99.90
10437;DHT22;5265;50.006;9.202;2023-04-25T06:46:05;7.30;99.90
10437;DHT22;5265;50.006;9.202;2023-04-25T06:48:41;7.50;99.90
10437;DHT22;5265;50.006;9.202;2023-04-25T06:51:08;7.50;99.90
10437;DHT22;5265;50.006;9.202;2023-04-25T06:53:36;7.60;99.90
10437;DHT22;5265;50.006;9.202;2023-04-25T06:56:06;7.60;99.90
10437;DHT22;5265;50.006;9.202;2023-04-25T06:58:44;7.60;99.90
10437;DHT22;5265;50.006;9.202;2023-04-25T07:01:32;7.80;99.90
10437;DHT22;5265;50.006;9.202;2023-04-25T07:04:06;7.80;99.90
10437;DHT22;5265;50.006;9.202;2023-04-25T07:06:37;7.90;99.90
10437;DHT22;5265;50.006;9.202;2023-04-25T07:09:08;7.70;99.90
10437;DHT22;5265;50.006;9.202;2023-04-25T07:11:35;7.90;99.90
10437;DHT22;5265;50.006;9.202;2023-04-25T07:14:03;7.90;99.90
10437;DHT22;5265;50.006;9.202;2023-04-25T07:16:30;7.90;99.90
10437;DHT22;5265;50.006;9.202;2023-04-25T07:18:58;8.00;99.90
10437;DHT22;5265;50.006;9.202;2023-04-25T07:21:27;8.10;99.90
10437;DHT22;5265;50.006;9.202;2023-04-25T07:23:55;8.20;99.90
10437;DHT22;5265;50.006;9.202;2023-04-25T07:26:28;8.30;99.90
10437;DHT22;5265;50.006;9.202;2023-04-25T07:29:16;8.20;99.90
10437;DHT22;5265;50.006;9.202;2023-04-25T07:31:43;8.20;99.90
10437;DHT22;5265;50.006;9.202;2023-04-25T07:34:11;8.30;99.90
10437;DHT22;5265;50.006;9.202;2023-04-25T07:36:39;8.40;99.90
10437;DHT22;5265;50.006;9.202;2023-04-25T07:39:07;8.30;99.90
10437;DHT22;5265;50.006;9.202;2023-04-25T07:41:35;8.50;99.90
10437;DHT22;5265;50.006;9.202;2023-04-25T07:44:03;8.60;99.90
10437;DHT22;5265;50.006;9.202;2023-04-25T07:46:31;8.80;99.90
10437;DHT22;5265;50.006;9.202;2023-04-25T07:48:58;8.90;99.90
10437;DHT22;5265;50.006;9.202;2023-04-25T07:51:26;8.80;99.90
10437;DHT22;5265;50.006;9.202;2023-04-25T07:53:58;8.80;99.90
10437;DHT22;5265;50.006;9.202;2023-04-25T07:56:27;8.60;99.90
10437;DHT22;5265;50.006;9.202;2023-04-25T07:58:54;8.70;99.90
10437;DHT22;5265;50.006;9.202;2023-04-25T08:01:23;8.80;99.90
10437;DHT22;5265;50.006;9.202;2023-04-25T08:04:02;8.90;99.90
10437;DHT22;5265;50.006;9.202;2023-04-25T08:06:48;8.90;99.90
10437;DHT22;5265;50.006;9.202;2023-04-25T08:09:22;9.00;99.90
10437;DHT22;5265;50.006;9.202;2023-04-25T08:11:51;9.00;99.90
10437;DHT22;5265;50.006;9.202;2023-04-25T08:14:24;9.00;99.90
10437;DHT22;5265;50.006;9.202;2023-04-25T08:16:51;9.10;99.90
10437;DHT22;5265;50.006;9.202;2023-04-25T08:19:19;9.20;99.90
10437;DHT22;5265;50.006;9.202;2023-04-25T08:21:47;9.30;99.90
10437;DHT22;5265;50.006;9.202;2023-04-25T08:24:19;9.20;99.90
10437;DHT22;5265;50.006;9.202;2023-04-25T08:26:48;9.20;99.90
10437;DHT22;5265;50.006;9.202;2023-04-25T08:29:17;9.30;99.90
10437;DHT22;5265;50.006;9.202;2023-04-25T08:31:45;9.30;99.90
10437;DHT22;5265;50.006;9.202;2023-04-25T08:34:13;9.20;99.90
10437;DHT22;5265;50.006;9.202;2023-04-25T08:36:50;9.20;99.90
10437;DHT22;5265;50.006;9.202;2023-04-25T08:39:36;9.20;99.90
10437;DHT22;5265;50.006;9.202;2023-04-25T08:42:24;9.20;99.90
10437;DHT22;5265;50.006;9.202;2023-04-25T08:44:52;9.30;99.90
10437;DHT22;5265;50.006;9.202;2023-04-25T08:47:21;9.30;99.90
10437;DHT22;5265;50.006;9.202;2023-04-25T08:49:54;9.30;99.90
10437;DHT22;5265;50.006;9.202;2023-04-25T08:52:22;9.40;99.90
10437;DHT22;5265;50.006;9.202;2023-04-25T08:54:50;9.40;99.90
10437;DHT22;5265;50.006;9.202;2023-04-25T08:57:19;9.50;99.90
10437;DHT22;5265;50.006;9.202;2023-04-25T08:59:49;9.50;99.90
10437;DHT22;5265;50.006;9.202;2023-04-25T09:02:17;9.40;99.90
10437;DHT22;5265;50.006;9.202;2023-04-25T09:04:48;9.40;99.90
10437;DHT22;5265;50.006;9.202;2023-04-25T09:07:16;9.50;99.90
10437;DHT22;5265;50.006;9.202;2023-04-25T09:09:46;9.50;99.90
10437;DHT22;5265;50.006;9.202;2023-04-25T09:12:17;9.60;99.90
10437;DHT22;5265;50.006;9.202;2023-04-25T09:17:42;9.80;99.90
10437;DHT22;5265;50.006;9.202;2023-04-25T09:20:12;10.10;99.90
10437;DHT22;5265;50.006;9.202;2023-04-25T09:22:39;10.10;99.90
10437;DHT22;5265;50.006;9.202;2023-04-25T09:25:08;10.10;99.90
10437;DHT22;5265;50.006;9.202;2023-04-25T09:27:42;10.30;99.90
10437;DHT22;5265;50.006;9.202;2023-04-25T09:30:28;10.50;99.90
10437;DHT22;5265;50.006;9.202;2023-04-25T09:33:30;10.60;99.90
10437;DHT22;5265;50.006;9.202;2023-04-25T09:36:02;10.60;99.90
10437;DHT22;5265;50.006;9.202;2023-04-25T09:38:56;10.50;99.90
10437;DHT22;5265;50.006;9.202;2023-04-25T09:41:28;10.40;99.90
10437;DHT22;5265;50.006;9.202;2023-04-25T09:43:59;10.50;99.90
10437;DHT22;5265;50.006;9.202;2023-04-25T09:46:33;10.40;99.90
10437;DHT22;5265;50.006;9.202;2023-04-25T09:49:05;10.20;99.90
10437;DHT22;5265;50.006;9.202;2023-04-25T09:51:40;10.20;99.90
10437;DHT22;5265;50.006;9.202;2023-04-25T09:54:09;10.20;99.90
10437;DHT22;5265;50.006;9.202;2023-04-25T09:56:40;10.20;99.90
10437;DHT22;5265;50.006;9.202;2023-04-25T09:59:09;10.20;99.90
10437;DHT22;5265;50.006;9.202;2023-04-25T10:01:36;10.20;99.90
10437;DHT22;5265;50.006;9.202;2023-04-25T10:04:25;10.20;99.90
10437;DHT22;5265;50.006;9.202;2023-04-25T10:07:01;10.20;99.90
10437;DHT22;5265;50.006;9.202;2023-04-25T10:09:29;10.40;99.90
10437;DHT22;5265;50.006;9.202;2023-04-25T10:11:59;10.20;99.90
10437;DHT22;5265;50.006;9.202;2023-04-25T10:14:27;10.10;99.90
10437;DHT22;5265;50.006;9.202;2023-04-25T10:16:55;10.20;99.90
10437;DHT22;5265;50.006;9.202;2023-04-25T10:19:23;10.20;99.90
10437;DHT22;5265;50.006;9.202;2023-04-25T10:21:52;10.40;99.90
10437;DHT22;5265;50.006;9.202;2023-04-25T10:24:20;10.50;99.90
10437;DHT22;5265;50.006;9.202;2023-04-25T10:26:48;10.30;99.90
10437;DHT22;5265;50.006;9.202;2023-04-25T10:29:21;10.30;99.90
10437;DHT22;5265;50.006;9.202;2023-04-25T10:31:48;10.30;99.90
10437;DHT22;5265;50.006;9.202;2023-04-25T10:34:15;10.30;99.90
10437;DHT22;5265;50.006;9.202;2023-04-25T10:36:43;10.40;99.90
10437;DHT22;5265;50.006;9.202;2023-04-25T10:39:19;10.30;99.90
10437;DHT22;5265;50.006;9.202;2023-04-25T10:41:48;10.20;99.90
10437;DHT22;5265;50.006;9.202;2023-04-25T10:44:18;10.30;99.90
10437;DHT22;5265;50.006;9.202;2023-04-25T10:46:46;10.40;99.90
10437;DHT22;5265;50.006;9.202;2023-04-25T10:49:27;10.50;99.90
10437;DHT22;5265;50.006;9.202;2023-04-25T10:54:41;10.40;99.90
10437;DHT22;5265;50.006;9.202;2023-04-25T10:59:50;10.40;99.90
10437;DHT22;5265;50.006;9.202;2023-04-25T11:02:18;10.50;99.90
10437;DHT22;5265;50.006;9.202;2023-04-25T11:04:45;10.40;99.90
10437;DHT22;5265;50.006;9.202;2023-04-25T11:07:13;10.40;99.90
10437;DHT22;5265;50.006;9.202;2023-04-25T11:09:44;10.30;99.90
10437;DHT22;5265;50.006;9.202;2023-04-25T11:12:12;10.10;99.90
10437;DHT22;5265;50.006;9.202;2023-04-25T11:14:39;10.30;99.90
10437;DHT22;5265;50.006;9.202;2023-04-25T11:17:06;10.10;99.90
10437;DHT22;5265;50.006;9.202;2023-04-25T11:19:34;10.10;99.90
10437;DHT22;5265;50.006;9.202;2023-04-25T11:22:02;10.30;99.90
10437;DHT22;5265;50.006;9.202;2023-04-25T11:24:29;10.20;99.90
10437;DHT22;5265;50.006;9.202;2023-04-25T11:26:59;10.20;99.90
10437;DHT22;5265;50.006;9.202;2023-04-25T11:29:28;10.20;99.90
10437;DHT22;5265;50.006;9.202;2023-04-25T11:31:55;10.10;99.90
10437;DHT22;5265;50.006;9.202;2023-04-25T11:34:23;10.10;99.90
10437;DHT22;5265;50.006;9.202;2023-04-25T11:36:51;9.90;99.90
10437;DHT22;5265;50.006;9.202;2023-04-25T11:39:19;9.90;99.90
10437;DHT22;5265;50.006;9.202;2023-04-25T11:41:46;9.80;99.90
10437;DHT22;5265;50.006;9.202;2023-04-25T11:44:16;9.80;99.90
10437;DHT22;5265;50.006;9.202;2023-04-25T11:46:43;9.70;99.90
10437;DHT22;5265;50.006;9.202;2023-04-25T11:49:11;9.80;99.90
10437;DHT22;5265;50.006;9.202;2023-04-25T11:51:38;9.90;99.90
10437;DHT22;5265;50.006;9.202;2023-04-25T11:54:06;9.90;99.90
10437;DHT22;5265;50.006;9.202;2023-04-25T11:56:33;10.00;99.90
10437;DHT22;5265;50.006;9.202;2023-04-25T11:59:00;10.20;99.90
10437;DHT22;5265;50.006;9.202;2023-04-25T12:01:29;10.30;99.90
10437;DHT22;5265;50.006;9.202;2023-04-25T12:03:57;10.30;99.90
10437;DHT22;5265;50.006;9.202;2023-04-25T12:06:27;10.40;99.90
10437;DHT22;5265;50.006;9.202;2023-04-25T12:09:01;10.50;99.90
10437;DHT22;5265;50.006;9.202;2023-04-25T12:11:29;10.60;99.90
10437;DHT22;5265;50.006;9.202;2023-04-25T12:14:01;10.60;99.90
10437;DHT22;5265;50.006;9.202;2023-04-25T12:16:29;10.70;99.90
10437;DHT22;5265;50.006;9.202;2023-04-25T12:18:56;10.60;99.90
10437;DHT22;5265;50.006;9.202;2023-04-25T12:21:27;10.50;99.90
10437;DHT22;5265;50.006;9.202;2023-04-25T12:23:56;10.60;99.90
10437;DHT22;5265;50.006;9.202;2023-04-25T12:26:23;10.50;99.90
10437;DHT22;5265;50.006;9.202;2023-04-25T12:28:51;10.50;99.90
10437;DHT22;5265;50.006;9.202;2023-04-25T12:31:19;10.30;99.90
10437;DHT22;5265;50.006;9.202;2023-04-25T12:33:48;10.20;99.90
10437;DHT22;5265;50.006;9.202;2023-04-25T12:36:15;10.20;99.90
10437;DHT22;5265;50.006;9.202;2023-04-25T12:38:42;10.20;99.90
10437;DHT22;5265;50.006;9.202;2023-04-25T12:41:09;10.20;99.90
10437;DHT22;5265;50.006;9.202;2023-04-25T12:43:37;10.20;99.90
10437;DHT22;5265;50.006;9.202;2023-04-25T12:46:03;10.20;99.90
10437;DHT22;5265;50.006;9.202;2023-04-25T12:48:31;10.20;99.90
10437;DHT22;5265;50.006;9.202;2023-04-25T12:50:59;10.10;99.90
10437;DHT22;5265;50.006;9.202;2023-04-25T12:53:27;10.10;99.90
10437;DHT22;5265;50.006;9.202;2023-04-25T12:55:54;10.00;99.90
10437;DHT22;5265;50.006;9.202;2023-04-25T12:58:21;10.10;99.90
10437;DHT22;5265;50.006;9.202;2023-04-25T13:00:49;10.10;99.90
10437;DHT22;5265;50.006;9.202;2023-04-25T13:03:16;10.20;99.90
10437;DHT22;5265;50.006;9.202;2023-04-25T13:05:44;10.30;99.90
10437;DHT22;5265;50.006;9.202;2023-04-25T13:08:13;10.50;99.90
10437;DHT22;5265;50.006;9.202;2023-04-25T13:10:41;10.50;99.90
10437;DHT22;5265;50.006;9.202;2023-04-25T13:13:08;10.70;99.90
10437;DHT22;5265;50.006;9.202;2023-04-25T13:15:35;10.70;99.90
10437;DHT22;5265;50.006;9.202;2023-04-25T13:18:02;10.70;99.90
10437;DHT22;5265;50.006;9.202;2023-04-25T13:20:29;10.80;99.90
10437;DHT22;5265;50.006;9.202;2023-04-25T13:22:57;10.60;99.90
10437;DHT22;5265;50.006;9.202;2023-04-25T13:25:25;10.60;99.90
10437;DHT22;5265;50.006;9.202;2023-04-25T13:27:52;10.60;99.90
10437;DHT22;5265;50.006;9.202;2023-04-25T13:30:20;10.50;99.90
10437;DHT22;5265;50.006;9.202;2023-04-25T13:32:47;10.50;99.90
10437;DHT22;5265;50.006;9.202;2023-04-25T13:35:14;10.60;99.90
10437;DHT22;5265;50.006;9.202;2023-04-25T13:37:42;10.60;99.90
10437;DHT22;5265;50.006;9.202;2023-04-25T13:40:10;10.50;99.90
10437;DHT22;5265;50.006;9.202;2023-04-25T13:42:39;10.40;99.90
10437;DHT22;5265;50.006;9.202;2023-04-25T13:45:06;10.40;99.90
10437;DHT22;5265;50.006;9.202;2023-04-25T13:47:34;10.40;99.90
10437;DHT22;5265;50.006;9.202;2023-04-25T13:50:01;10.40;99.90
10437;DHT22;5265;50.006;9.202;2023-04-25T13:52:29;10.40;99.90
10437;DHT22;5265;50.006;9.202;2023-04-25T13:54:56;10.30;99.90
10437;DHT22;5265;50.006;9.202;2023-04-25T13:57:23;10.30;99.90
10437;DHT22;5265;50.006;9.202;2023-04-25T13:59:52;10.40;99.90
10437;DHT22;5265;50.006;9.202;2023-04-25T14:02:19;10.60;99.90
10437;DHT22;5265;50.006;9.202;2023-04-25T14:04:46;10.70;99.90
10437;DHT22;5265;50.006;9.202;2023-04-25T14:07:13;10.70;99.90
10437;DHT22;5265;50.006;9.202;2023-04-25T14:09:42;11.00;99.90
10437;DHT22;5265;50.006;9.202;2023-04-25T14:12:08;11.00;99.90
10437;DHT22;5265;50.006;9.202;2023-04-25T14:14:36;11.20;99.90
10437;DHT22;5265;50.006;9.202;2023-04-25T14:17:05;11.30;99.90
10437;DHT22;5265;50.006;9.202;2023-04-25T14:19:32;11.40;99.90
10437;DHT22;5265;50.006;9.202;2023-04-25T14:21:59;11.60;99.90
10437;DHT22;5265;50.006;9.202;2023-04-25T14:24:26;11.60;99.90
10437;DHT22;5265;50.006;9.202;2023-04-25T14:26:54;11.50;99.90
10437;DHT22;5265;50.006;9.202;2023-04-25T14:29:21;11.20;99.90
10437;DHT22;5265;50.006;9.202;2023-04-25T14:31:48;11.20;99.90
10437;DHT22;5265;50.006;9.202;2023-04-25T14:34:16;11.30;99.90
10437;DHT22;5265;50.006;9.202;2023-04-25T14:36:43;11.40;99.90
10437;DHT22;5265;50.006;9.202;2023-04-25T14:39:10;11.30;99.90
10437;DHT22;5265;50.006;9.202;2023-04-25T14:41:38;11.10;99.90
10437;DHT22;5265;50.006;9.202;2023-04-25T14:44:05;11.00;99.90
10437;DHT22;5265;50.006;9.202;2023-04-25T14:46:32;10.90;99.90
10437;DHT22;5265;50.006;9.202;2023-04-25T14:49:00;10.80;99.90
10437;DHT22;5265;50.006;9.202;2023-04-25T14:51:29;10.90;99.90
10437;DHT22;5265;50.006;9.202;2023-04-25T14:53:56;10.90;99.90
10437;DHT22;5265;50.006;9.202;2023-04-25T14:56:24;10.90;99.90
10437;DHT22;5265;50.006;9.202;2023-04-25T14:58:51;11.10;99.90
10437;DHT22;5265;50.006;9.202;2023-04-25T15:01:18;11.30;99.90
10437;DHT22;5265;50.006;9.202;2023-04-25T15:03:47;11.40;99.90
10437;DHT22;5265;50.006;9.202;2023-04-25T15:06:14;12.10;99.90
10437;DHT22;5265;50.006;9.202;2023-04-25T15:08:43;12.60;99.90
10437;DHT22;5265;50.006;9.202;2023-04-25T15:11:10;12.80;99.90
10437;DHT22;5265;50.006;9.202;2023-04-25T15:13:37;12.20;99.90
10437;DHT22;5265;50.006;9.202;2023-04-25T15:16:05;12.20;99.90
10437;DHT22;5265;50.006;9.202;2023-04-25T15:18:32;12.10;99.90
10437;DHT22;5265;50.006;9.202;2023-04-25T15:21:00;11.60;99.90
10437;DHT22;5265;50.006;9.202;2023-04-25T15:23:27;11.20;99.90
10437;DHT22;5265;50.006;9.202;2023-04-25T15:25:56;11.20;99.90
10437;DHT22;5265;50.006;9.202;2023-04-25T15:28:23;11.00;99.90
10437;DHT22;5265;50.006;9.202;2023-04-25T15:30:50;11.10;99.90
10437;DHT22;5265;50.006;9.202;2023-04-25T15:33:17;11.20;99.90
10437;DHT22;5265;50.006;9.202;2023-04-25T15:35:44;11.20;99.90
10437;DHT22;5265;50.006;9.202;2023-04-25T15:38:12;11.20;99.90
10437;DHT22;5265;50.006;9.202;2023-04-25T15:40:39;10.90;99.90
10437;DHT22;5265;50.006;9.202;2023-04-25T15:43:08;10.90;99.90
10437;DHT22;5265;50.006;9.202;2023-04-25T15:45:41;10.90;99.90
10437;DHT22;5265;50.006;9.202;2023-04-25T15:48:08;10.90;99.90
10437;DHT22;5265;50.006;9.202;2023-04-25T15:50:35;10.90;99.90
10437;DHT22;5265;50.006;9.202;2023-04-25T15:53:03;11.00;99.90
10437;DHT22;5265;50.006;9.202;2023-04-25T15:55:30;10.90;99.90
10437;DHT22;5265;50.006;9.202;2023-04-25T15:57:57;11.00;99.90
10437;DHT22;5265;50.006;9.202;2023-04-25T16:00:25;11.20;99.90
10437;DHT22;5265;50.006;9.202;2023-04-25T16:02:53;11.60;99.90
10437;DHT22;5265;50.006;9.202;2023-04-25T16:05:20;11.70;99.90
10437;DHT22;5265;50.006;9.202;2023-04-25T16:07:48;11.60;99.90
10437;DHT22;5265;50.006;9.202;2023-04-25T16:10:18;11.40;99.90
10437;DHT22;5265;50.006;9.202;2023-04-25T16:12:46;11.20;99.90
10437;DHT22;5265;50.006;9.202;2023-04-25T16:15:14;11.00;99.90
10437;DHT22;5265;50.006;9.202;2023-04-25T16:17:43;11.00;99.90
10437;DHT22;5265;50.006;9.202;2023-04-25T16:20:10;10.90;99.90
10437;DHT22;5265;50.006;9.202;2023-04-25T16:22:38;11.00;99.90
10437;DHT22;5265;50.006;9.202;2023-04-25T16:25:06;11.00;99.90
10437;DHT22;5265;50.006;9.202;2023-04-25T16:27:33;10.90;99.90
10437;DHT22;5265;50.006;9.202;2023-04-25T16:30:00;10.90;99.90
10437;DHT22;5265;50.006;9.202;2023-04-25T16:32:28;11.00;99.90
10437;DHT22;5265;50.006;9.202;2023-04-25T16:34:56;11.00;99.90
10437;DHT22;5265;50.006;9.202;2023-04-25T16:37:24;11.10;99.90
10437;DHT22;5265;50.006;9.202;2023-04-25T16:39:51;11.80;99.90
10437;DHT22;5265;50.006;9.202;2023-04-25T16:42:18;11.80;99.90
10437;DHT22;5265;50.006;9.202;2023-04-25T16:44:45;11.60;99.90
10437;DHT22;5265;50.006;9.202;2023-04-25T16:47:12;11.30;99.90
10437;DHT22;5265;50.006;9.202;2023-04-25T16:49:39;11.00;99.90
10437;DHT22;5265;50.006;9.202;2023-04-25T16:52:08;11.10;99.90
10437;DHT22;5265;50.006;9.202;2023-04-25T16:54:35;11.00;99.90
10437;DHT22;5265;50.006;9.202;2023-04-25T16:57:02;10.90;99.90
10437;DHT22;5265;50.006;9.202;2023-04-25T16:59:30;10.90;99.90
10437;DHT22;5265;50.006;9.202;2023-04-25T17:01:57;10.90;99.90
10437;DHT22;5265;50.006;9.202;2023-04-25T17:04:25;10.90;99.90
10437;DHT22;5265;50.006;9.202;2023-04-25T17:06:53;10.80;99.90
10437;DHT22;5265;50.006;9.202;2023-04-25T17:09:21;10.90;99.90
10437;DHT22;5265;50.006;9.202;2023-04-25T17:11:48;11.00;99.90
10437;DHT22;5265;50.006;9.202;2023-04-25T17:14:16;11.00;99.90
10437;DHT22;5265;50.006;9.202;2023-04-25T17:16:43;10.80;99.90
10437;DHT22;5265;50.006;9.202;2023-04-25T17:19:10;10.80;99.90
10437;DHT22;5265;50.006;9.202;2023-04-25T17:21:37;10.70;99.90
10437;DHT22;5265;50.006;9.202;2023-04-25T17:24:05;10.70;99.90
10437;DHT22;5265;50.006;9.202;2023-04-25T17:26:36;10.60;99.90
10437;DHT22;5265;50.006;9.202;2023-04-25T17:29:02;10.60;99.90
10437;DHT22;5265;50.006;9.202;2023-04-25T17:31:30;10.50;99.90
10437;DHT22;5265;50.006;9.202;2023-04-25T17:33:57;10.50;99.90
10437;DHT22;5265;50.006;9.202;2023-04-25T17:36:24;10.60;99.90
10437;DHT22;5265;50.006;9.202;2023-04-25T17:38:52;10.60;99.90
10437;DHT22;5265;50.006;9.202;2023-04-25T17:41:19;10.50;99.90
10437;DHT22;5265;50.006;9.202;2023-04-25T17:43:48;10.50;99.90
10437;DHT22;5265;50.006;9.202;2023-04-25T17:46:16;10.40;99.90
10437;DHT22;5265;50.006;9.202;2023-04-25T17:48:43;10.40;99.90
10437;DHT22;5265;50.006;9.202;2023-04-25T17:51:10;10.30;99.90
10437;DHT22;5265;50.006;9.202;2023-04-25T17:53:37;10.30;99.90
10437;DHT22;5265;50.006;9.202;2023-04-25T17:56:05;10.30;99.90
10437;DHT22;5265;50.006;9.202;2023-04-25T17:58:33;10.30;99.90
10437;DHT22;5265;50.006;9.202;2023-04-25T18:01:02;10.60;99.90
10437;DHT22;5265;50.006;9.202;2023-04-25T18:03:30;10.70;99.90
10437;DHT22;5265;50.006;9.202;2023-04-25T18:05:58;10.50;99.90
10437;DHT22;5265;50.006;9.202;2023-04-25T18:08:25;10.40;99.90
10437;DHT22;5265;50.006;9.202;2023-04-25T18:10:52;10.30;99.90
10437;DHT22;5265;50.006;9.202;2023-04-25T18:13:20;10.20;99.90
10437;DHT22;5265;50.006;9.202;2023-04-25T18:15:47;10.20;99.90
10437;DHT22;5265;50.006;9.202;2023-04-25T18:18:17;10.10;99.90
10437;DHT22;5265;50.006;9.202;2023-04-25T18:20:50;10.10;99.90
10437;DHT22;5265;50.006;9.202;2023-04-25T18:23:17;10.10;99.90
10437;DHT22;5265;50.006;9.202;2023-04-25T18:25:44;10.00;99.90
10437;DHT22;5265;50.006;9.202;2023-04-25T18:28:12;10.10;99.90
10437;DHT22;5265;50.006;9.202;2023-04-25T18:30:39;10.00;99.90
10437;DHT22;5265;50.006;9.202;2023-04-25T18:33:09;9.80;99.90
10437;DHT22;5265;50.006;9.202;2023-04-25T18:35:37;9.90;99.90
10437;DHT22;5265;50.006;9.202;2023-04-25T18:38:04;9.80;99.90
10437;DHT22;5265;50.006;9.202;2023-04-25T18:40:32;9.80;99.90
10437;DHT22;5265;50.006;9.202;2023-04-25T18:42:59;9.60;99.90
10437;DHT22;5265;50.006;9.202;2023-04-25T18:45:26;9.60;99.90
10437;DHT22;5265;50.006;9.202;2023-04-25T18:47:53;9.60;99.90
10437;DHT22;5265;50.006;9.202;2023-04-25T18:50:21;9.50;99.90
10437;DHT22;5265;50.006;9.202;2023-04-25T18:52:52;9.30;99.90
10437;DHT22;5265;50.006;9.202;2023-04-25T18:55:19;9.30;99.90
10437;DHT22;5265;50.006;9.202;2023-04-25T18:57:47;9.10;99.90
10437;DHT22;5265;50.006;9.202;2023-04-25T19:00:14;9.10;99.90
10437;DHT22;5265;50.006;9.202;2023-04-25T19:02:41;9.00;99.90
10437;DHT22;5265;50.006;9.202;2023-04-25T19:05:08;9.00;99.90
10437;DHT22;5265;50.006;9.202;2023-04-25T19:07:36;9.00;99.90
10437;DHT22;5265;50.006;9.202;2023-04-25T19:10:05;9.00;99.90
10437;DHT22;5265;50.006;9.202;2023-04-25T19:12:33;9.00;99.90
10437;DHT22;5265;50.006;9.202;2023-04-25T19:15:00;9.00;99.90
10437;DHT22;5265;50.006;9.202;2023-04-25T19:17:27;9.00;99.90
10437;DHT22;5265;50.006;9.202;2023-04-25T19:19:54;8.90;99.90
10437;DHT22;5265;50.006;9.202;2023-04-25T19:22:22;8.90;99.90
10437;DHT22;5265;50.006;9.202;2023-04-25T19:24:49;9.00;99.90
10437;DHT22;5265;50.006;9.202;2023-04-25T19:27:17;9.10;99.90
10437;DHT22;5265;50.006;9.202;2023-04-25T19:29:44;9.00;99.90
10437;DHT22;5265;50.006;9.202;2023-04-25T19:32:13;9.00;99.90
10437;DHT22;5265;50.006;9.202;2023-04-25T19:34:40;8.90;99.90
10437;DHT22;5265;50.006;9.202;2023-04-25T19:37:07;9.00;99.90
10437;DHT22;5265;50.006;9.202;2023-04-25T19:39:35;8.90;99.90
10437;DHT22;5265;50.006;9.202;2023-04-25T19:42:02;8.90;99.90
10437;DHT22;5265;50.006;9.202;2023-04-25T19:44:31;8.80;99.90
10437;DHT22;5265;50.006;9.202;2023-04-25T19:46:58;8.80;99.90
10437;DHT22;5265;50.006;9.202;2023-04-25T19:49:26;8.70;99.90
10437;DHT22;5265;50.006;9.202;2023-04-25T19:51:54;8.60;99.90
10437;DHT22;5265;50.006;9.202;2023-04-25T19:54:21;8.60;99.90
10437;DHT22;5265;50.006;9.202;2023-04-25T19:56:48;8.60;99.90
10437;DHT22;5265;50.006;9.202;2023-04-25T19:59:15;8.60;99.90
10437;DHT22;5265;50.006;9.202;2023-04-25T20:01:44;8.50;99.90
10437;DHT22;5265;50.006;9.202;2023-04-25T20:04:11;8.40;99.90
10437;DHT22;5265;50.006;9.202;2023-04-25T20:06:38;8.40;99.90
10437;DHT22;5265;50.006;9.202;2023-04-25T20:09:05;8.20;99.90
10437;DHT22;5265;50.006;9.202;2023-04-25T20:11:34;8.20;99.90
10437;DHT22;5265;50.006;9.202;2023-04-25T20:14:01;8.00;99.90
10437;DHT22;5265;50.006;9.202;2023-04-25T20:16:30;7.90;99.90
10437;DHT22;5265;50.006;9.202;2023-04-25T20:18:59;7.80;99.90
10437;DHT22;5265;50.006;9.202;2023-04-25T20:21:26;7.80;99.90
10437;DHT22;5265;50.006;9.202;2023-04-25T20:23:53;7.70;99.90
10437;DHT22;5265;50.006;9.202;2023-04-25T20:26:21;7.80;99.90
10437;DHT22;5265;50.006;9.202;2023-04-25T20:28:48;7.70;99.90
10437;DHT22;5265;50.006;9.202;2023-04-25T20:31:15;7.70;99.90
10437;DHT22;5265;50.006;9.202;2023-04-25T20:33:42;7.70;99.90
10437;DHT22;5265;50.006;9.202;2023-04-25T20:36:11;7.70;99.90
10437;DHT22;5265;50.006;9.202;2023-04-25T20:38:39;7.60;99.90
10437;DHT22;5265;50.006;9.202;2023-04-25T20:41:07;7.50;99.90
10437;DHT22;5265;50.006;9.202;2023-04-25T20:43:34;7.30;99.90
10437;DHT22;5265;50.006;9.202;2023-04-25T20:46:01;7.10;99.90
10437;DHT22;5265;50.006;9.202;2023-04-25T20:48:28;7.20;99.90
10437;DHT22;5265;50.006;9.202;2023-04-25T20:50:56;6.90;99.90
10437;DHT22;5265;50.006;9.202;2023-04-25T20:53:24;6.80;99.90
10437;DHT22;5265;50.006;9.202;2023-04-25T20:55:52;6.80;99.90
10437;DHT22;5265;50.006;9.202;2023-04-25T20:58:19;6.70;99.90
10437;DHT22;5265;50.006;9.202;2023-04-25T21:00:46;6.60;99.90
10437;DHT22;5265;50.006;9.202;2023-04-25T21:03:13;6.60;99.90
10437;DHT22;5265;50.006;9.202;2023-04-25T21:05:40;6.50;99.90
10437;DHT22;5265;50.006;9.202;2023-04-25T21:08:08;6.40;99.90
10437;DHT22;5265;50.006;9.202;2023-04-25T21:10:36;6.40;99.90
10437;DHT22;5265;50.006;9.202;2023-04-25T21:13:04;6.30;99.90
10437;DHT22;5265;50.006;9.202;2023-04-25T21:15:31;6.30;99.90
10437;DHT22;5265;50.006;9.202;2023-04-25T21:17:58;6.60;99.90
10437;DHT22;5265;50.006;9.202;2023-04-25T21:20:26;6.20;99.90
10437;DHT22;5265;50.006;9.202;2023-04-25T21:22:53;6.20;99.90
10437;DHT22;5265;50.006;9.202;2023-04-25T21:25:24;6.10;99.90
10437;DHT22;5265;50.006;9.202;2023-04-25T21:27:57;6.20;99.90
10437;DHT22;5265;50.006;9.202;2023-04-25T21:30:24;6.10;99.90
10437;DHT22;5265;50.006;9.202;2023-04-25T21:32:51;6.00;99.90
10437;DHT22;5265;50.006;9.202;2023-04-25T21:35:19;6.00;99.90
10437;DHT22;5265;50.006;9.202;2023-04-25T21:37:46;5.90;99.90
10437;DHT22;5265;50.006;9.202;2023-04-25T21:40:14;5.90;99.90
10437;DHT22;5265;50.006;9.202;2023-04-25T21:42:40;5.80;99.90
10437;DHT22;5265;50.006;9.202;2023-04-25T21:45:10;5.70;99.90
10437;DHT22;5265;50.006;9.202;2023-04-25T21:47:37;5.70;99.90
10437;DHT22;5265;50.006;9.202;2023-04-25T21:50:04;5.80;99.90
10437;DHT22;5265;50.006;9.202;2023-04-25T21:52:32;5.40;99.90
10437;DHT22;5265;50.006;9.202;2023-04-25T21:54:59;5.40;99.90
10437;DHT22;5265;50.006;9.202;2023-04-25T21:57:26;5.40;99.90
10437;DHT22;5265;50.006;9.202;2023-04-25T21:59:53;5.50;99.90
10437;DHT22;5265;50.006;9.202;2023-04-25T22:02:22;5.30;99.90
10437;DHT22;5265;50.006;9.202;2023-04-25T22:04:49;5.30;99.90
10437;DHT22;5265;50.006;9.202;2023-04-25T22:07:16;5.30;99.90
10437;DHT22;5265;50.006;9.202;2023-04-25T22:09:43;5.30;99.90